sensor_id;sensor_type;location;lat;lon;timestamp;pressure;altitude;pressure_sealevel;temperature;humidity
56142;BME280;42018;48.588;10.836;2023-08-17T00:01:31;96837.75;;;23.76;63.49
56142;BME280;42018;48.588;10.836;2023-08-17T00:04:16;96828.94;;;23.79;63.22
56142;BME280;42018;48.588;10.836;2023-08-17T00:07:02;96830.69;;;23.71;63.10
56142;BME280;42018;48.588;10.836;2023-08-17T00:09:47;96839.56;;;23.72;63.20
56142;BME280;42018;48.588;10.836;2023-08-17T00:12:33;96833.84;;;23.73;63.05
56142;BME280;42018;48.588;10.836;2023-08-17T00:15:18;96834.72;;;23.77;62.67
56142;BME280;42018;48.588;10.836;2023-08-17T00:18:03;96841.75;;;23.66;63.74
56142;BME280;42018;48.588;10.836;2023-08-17T00:20:49;96854.25;;;23.71;63.28
56142;BME280;42018;48.588;10.836;2023-08-17T00:23:34;96847.69;;;23.72;62.78
56142;BME280;42018;48.588;10.836;2023-08-17T00:26:20;96854.38;;;23.62;63.81
56142;BME280;42018;48.588;10.836;2023-08-17T00:29:05;96856.09;;;23.54;63.95
56142;BME280;42018;48.588;10.836;2023-08-17T00:31:50;96857.06;;;23.62;63.75
56142;BME280;42018;48.588;10.836;2023-08-17T00:34:37;96859.25;;;23.56;63.85
56142;BME280;42018;48.588;10.836;2023-08-17T00:37:22;96864.09;;;23.35;64.40
56142;BME280;42018;48.588;10.836;2023-08-17T00:40:08;96864.22;;;23.26;64.75
56142;BME280;42018;48.588;10.836;2023-08-17T00:42:53;96870.97;;;23.32;64.73
56142;BME280;42018;48.588;10.836;2023-08-17T00:45:39;96871.34;;;23.31;64.79
56142;BME280;42018;48.588;10.836;2023-08-17T00:48:26;96876.34;;;23.16;65.27
56142;BME280;42018;48.588;10.836;2023-08-17T00:51:11;96865.53;;;23.16;65.26
56142;BME280;42018;48.588;10.836;2023-08-17T00:54:01;96871.47;;;23.22;64.80
56142;BME280;42018;48.588;10.836;2023-08-17T00:56:46;96869.25;;;23.12;65.35
56142;BME280;42018;48.588;10.836;2023-08-17T00:59:32;96862.66;;;23.25;64.79
56142;BME280;42018;48.588;10.836;2023-08-17T01:02:18;96867.31;;;23.40;64.33
56142;BME280;42018;48.588;10.836;2023-08-17T01:05:03;96866.03;;;23.34;64.15
56142;BME280;42018;48.588;10.836;2023-08-17T01:07:51;96865.81;;;23.27;64.95
56142;BME280;42018;48.588;10.836;2023-08-17T01:10:47;96870.34;;;23.23;64.33
56142;BME280;42018;48.588;10.836;2023-08-17T01:17:06;96875.84;;;22.99;63.84
56142;BME280;42018;48.588;10.836;2023-08-17T01:19:57;96871.78;;;22.92;64.56
56142;BME280;42018;48.588;10.836;2023-08-17T01:22:45;96864.59;;;22.84;65.14
56142;BME280;42018;48.588;10.836;2023-08-17T01:25:33;96858.88;;;22.74;65.55
56142;BME280;42018;48.588;10.836;2023-08-17T01:28:24;96866.41;;;22.68;66.14
56142;BME280;42018;48.588;10.836;2023-08-17T01:31:30;96863.41;;;22.57;65.57
56142;BME280;42018;48.588;10.836;2023-08-17T01:34:19;96858.88;;;22.74;65.41
56142;BME280;42018;48.588;10.836;2023-08-17T01:37:10;96858.06;;;22.73;65.48
56142;BME280;42018;48.588;10.836;2023-08-17T01:39:57;96857.84;;;22.66;65.97
56142;BME280;42018;48.588;10.836;2023-08-17T01:42:44;96847.97;;;22.70;65.80
56142;BME280;42018;48.588;10.836;2023-08-17T01:45:30;96838.16;;;22.65;66.21
56142;BME280;42018;48.588;10.836;2023-08-17T01:48:15;96845.28;;;22.70;65.83
56142;BME280;42018;48.588;10.836;2023-08-17T01:51:00;96847.25;;;22.73;65.47
56142;BME280;42018;48.588;10.836;2023-08-17T01:53:46;96847.25;;;22.73;65.76
56142;BME280;42018;48.588;10.836;2023-08-17T01:56:31;96839.88;;;22.70;65.81
56142;BME280;42018;48.588;10.836;2023-08-17T01:59:16;96839.41;;;22.68;65.50
56142;BME280;42018;48.588;10.836;2023-08-17T02:02:02;96829.44;;;22.56;65.57
56142;BME280;42018;48.588;10.836;2023-08-17T02:04:47;96827.72;;;22.64;65.25
56142;BME280;42018;48.588;10.836;2023-08-17T02:07:33;96820.03;;;22.66;65.04
56142;BME280;42018;48.588;10.836;2023-08-17T02:10:18;96825.44;;;22.78;64.34
56142;BME280;42018;48.588;10.836;2023-08-17T02:13:04;96831.81;;;22.86;64.13
56142;BME280;42018;48.588;10.836;2023-08-17T02:15:49;96835.72;;;22.60;65.38
56142;BME280;42018;48.588;10.836;2023-08-17T02:18:35;96834.81;;;22.56;66.00
56142;BME280;42018;48.588;10.836;2023-08-17T02:21:20;96831.91;;;22.49;66.40
56142;BME280;42018;48.588;10.836;2023-08-17T02:24:06;96819.22;;;22.25;67.52
56142;BME280;42018;48.588;10.836;2023-08-17T02:26:51;96812.03;;;22.17;67.85
56142;BME280;42018;48.588;10.836;2023-08-17T02:29:37;96818.06;;;22.02;68.74
56142;BME280;42018;48.588;10.836;2023-08-17T02:32:22;96813.50;;;22.14;67.86
56142;BME280;42018;48.588;10.836;2023-08-17T02:35:08;96807.09;;;22.19;67.78
56142;BME280;42018;48.588;10.836;2023-08-17T02:37:53;96813.94;;;22.29;66.93
56142;BME280;42018;48.588;10.836;2023-08-17T02:40:39;96811.91;;;22.26;67.12
56142;BME280;42018;48.588;10.836;2023-08-17T02:43:24;96814.75;;;22.17;67.81
56142;BME280;42018;48.588;10.836;2023-08-17T02:46:09;96813.81;;;22.13;67.68
56142;BME280;42018;48.588;10.836;2023-08-17T02:48:55;96816.31;;;22.18;67.57
56142;BME280;42018;48.588;10.836;2023-08-17T02:51:41;96814.06;;;22.20;67.54
56142;BME280;42018;48.588;10.836;2023-08-17T02:54:26;96810.66;;;22.23;67.09
56142;BME280;42018;48.588;10.836;2023-08-17T02:57:12;96816.28;;;22.30;66.84
56142;BME280;42018;48.588;10.836;2023-08-17T02:59:57;96817.00;;;22.27;66.58
56142;BME280;42018;48.588;10.836;2023-08-17T03:02:43;96813.84;;;22.25;66.85
56142;BME280;42018;48.588;10.836;2023-08-17T03:05:28;96817.53;;;22.33;66.44
56142;BME280;42018;48.588;10.836;2023-08-17T03:08:14;96806.63;;;22.29;67.12
56142;BME280;42018;48.588;10.836;2023-08-17T03:10:59;96812.03;;;22.17;67.58
56142;BME280;42018;48.588;10.836;2023-08-17T03:13:44;96801.22;;;22.05;68.10
56142;BME280;42018;48.588;10.836;2023-08-17T03:16:32;96798.88;;;22.03;67.99
56142;BME280;42018;48.588;10.836;2023-08-17T03:19:18;96802.13;;;21.96;68.10
56142;BME280;42018;48.588;10.836;2023-08-17T03:22:03;96808.31;;;21.97;68.14
56142;BME280;42018;48.588;10.836;2023-08-17T03:24:49;96807.72;;;21.91;68.33
56142;BME280;42018;48.588;10.836;2023-08-17T03:27:34;96805.84;;;21.92;67.76
56142;BME280;42018;48.588;10.836;2023-08-17T03:30:20;96803.69;;;21.97;68.20
56142;BME280;42018;48.588;10.836;2023-08-17T03:33:05;96804.03;;;21.96;67.80
56142;BME280;42018;48.588;10.836;2023-08-17T03:35:50;96808.41;;;22.00;67.82
56142;BME280;42018;48.588;10.836;2023-08-17T03:38:36;96810.22;;;21.96;67.90
56142;BME280;42018;48.588;10.836;2023-08-17T03:41:22;96810.22;;;21.96;67.78
56142;BME280;42018;48.588;10.836;2023-08-17T03:44:08;96809.88;;;21.98;67.44
56142;BME280;42018;48.588;10.836;2023-08-17T03:46:54;96816.97;;;22.03;66.89
56142;BME280;42018;48.588;10.836;2023-08-17T03:49:40;96811.09;;;22.00;67.43
56142;BME280;42018;48.588;10.836;2023-08-17T03:52:25;96808.66;;;21.95;67.62
56142;BME280;42018;48.588;10.836;2023-08-17T03:55:10;96814.81;;;21.96;67.29
56142;BME280;42018;48.588;10.836;2023-08-17T03:57:56;96813.78;;;21.76;68.60
56142;BME280;42018;48.588;10.836;2023-08-17T04:00:41;96811.31;;;21.71;68.84
56142;BME280;42018;48.588;10.836;2023-08-17T04:03:28;96816.34;;;21.48;69.25
56142;BME280;42018;48.588;10.836;2023-08-17T04:06:13;96821.41;;;21.49;69.03
56142;BME280;42018;48.588;10.836;2023-08-17T04:08:59;96817.47;;;21.59;68.32
56142;BME280;42018;48.588;10.836;2023-08-17T04:11:45;96822.00;;;21.67;68.16
56142;BME280;42018;48.588;10.836;2023-08-17T04:14:31;96814.69;;;21.68;68.07
56142;BME280;42018;48.588;10.836;2023-08-17T04:17:16;96820.31;;;21.75;67.57
56142;BME280;42018;48.588;10.836;2023-08-17T04:20:02;96825.03;;;21.78;67.56
56142;BME280;42018;48.588;10.836;2023-08-17T04:22:47;96828.84;;;21.77;67.41
56142;BME280;42018;48.588;10.836;2023-08-17T04:25:32;96829.31;;;21.79;67.09
56142;BME280;42018;48.588;10.836;2023-08-17T04:28:18;96828.97;;;21.81;67.51
56142;BME280;42018;48.588;10.836;2023-08-17T04:31:03;96824.69;;;21.80;67.47
56142;BME280;42018;48.588;10.836;2023-08-17T04:33:48;96821.56;;;21.78;67.96
56142;BME280;42018;48.588;10.836;2023-08-17T04:36:34;96825.03;;;21.78;68.35
56142;BME280;42018;48.588;10.836;2023-08-17T04:39:19;96831.53;;;21.77;68.36
56142;BME280;42018;48.588;10.836;2023-08-17T04:42:05;96835.38;;;21.76;68.43
56142;BME280;42018;48.588;10.836;2023-08-17T04:44:50;96837.28;;;21.75;68.52
56142;BME280;42018;48.588;10.836;2023-08-17T04:47:38;96842.13;;;21.82;68.55
56142;BME280;42018;48.588;10.836;2023-08-17T04:50:23;96846.50;;;21.74;69.50
56142;BME280;42018;48.588;10.836;2023-08-17T04:53:08;96853.09;;;21.65;69.04
56142;BME280;42018;48.588;10.836;2023-08-17T04:55:54;96851.31;;;21.57;69.71
56142;BME280;42018;48.588;10.836;2023-08-17T04:58:39;96855.03;;;21.76;68.86
56142;BME280;42018;48.588;10.836;2023-08-17T05:01:24;96856.50;;;21.74;68.97
56142;BME280;42018;48.588;10.836;2023-08-17T05:04:10;96860.72;;;21.63;69.20
56142;BME280;42018;48.588;10.836;2023-08-17T05:06:55;96861.91;;;21.74;68.89
56142;BME280;42018;48.588;10.836;2023-08-17T05:09:40;96859.66;;;21.76;69.21
56142;BME280;42018;48.588;10.836;2023-08-17T05:12:26;96857.06;;;21.67;69.64
56142;BME280;42018;48.588;10.836;2023-08-17T05:15:11;96851.91;;;21.74;69.35
56142;BME280;42018;48.588;10.836;2023-08-17T05:17:57;96864.25;;;21.75;69.48
56142;BME280;42018;48.588;10.836;2023-08-17T05:20:42;96863.72;;;21.82;69.90
56142;BME280;42018;48.588;10.836;2023-08-17T05:23:28;96868.56;;;21.89;69.28
56142;BME280;42018;48.588;10.836;2023-08-17T05:26:13;96867.00;;;22.00;69.69
56142;BME280;42018;48.588;10.836;2023-08-17T05:28:58;96876.56;;;22.10;68.97
56142;BME280;42018;48.588;10.836;2023-08-17T05:31:44;96870.16;;;22.27;68.98
56142;BME280;42018;48.588;10.836;2023-08-17T05:34:29;96869.16;;;22.31;68.63
56142;BME280;42018;48.588;10.836;2023-08-17T05:37:15;96860.03;;;22.36;68.35
56142;BME280;42018;48.588;10.836;2023-08-17T05:40:00;96868.03;;;22.32;68.06
56142;BME280;42018;48.588;10.836;2023-08-17T05:42:46;96857.38;;;22.23;69.06
56142;BME280;42018;48.588;10.836;2023-08-17T05:45:31;96865.69;;;22.31;69.30
56142;BME280;42018;48.588;10.836;2023-08-17T05:48:19;96859.47;;;22.42;68.22
56142;BME280;42018;48.588;10.836;2023-08-17T05:51:05;96857.09;;;22.41;68.90
56142;BME280;42018;48.588;10.836;2023-08-17T05:53:51;96862.84;;;22.52;68.54
56142;BME280;42018;48.588;10.836;2023-08-17T05:56:36;96867.47;;;22.39;69.46
56142;BME280;42018;48.588;10.836;2023-08-17T05:59:21;96873.66;;;22.39;69.84
56142;BME280;42018;48.588;10.836;2023-08-17T06:02:07;96862.88;;;22.27;70.48
56142;BME280;42018;48.588;10.836;2023-08-17T06:04:52;96868.38;;;22.31;69.86
56142;BME280;42018;48.588;10.836;2023-08-17T06:07:37;96868.16;;;22.23;71.33
56142;BME280;42018;48.588;10.836;2023-08-17T06:10:23;96858.03;;;22.20;70.99
56142;BME280;42018;48.588;10.836;2023-08-17T06:13:10;96861.06;;;22.31;70.97
56142;BME280;42018;48.588;10.836;2023-08-17T06:15:56;96869.50;;;22.17;72.79
56142;BME280;42018;48.588;10.836;2023-08-17T06:18:42;96865.13;;;22.25;71.45
56142;BME280;42018;48.588;10.836;2023-08-17T06:21:27;96862.06;;;22.14;74.12
56142;BME280;42018;48.588;10.836;2023-08-17T06:24:12;96862.84;;;22.03;76.17
56142;BME280;42018;48.588;10.836;2023-08-17T06:26:58;96858.91;;;22.00;76.45
56142;BME280;42018;48.588;10.836;2023-08-17T06:29:43;96852.81;;;22.03;77.01
56142;BME280;42018;48.588;10.836;2023-08-17T06:32:32;96861.00;;;21.94;77.82
56142;BME280;42018;48.588;10.836;2023-08-17T06:35:18;96852.03;;;22.03;77.58
56142;BME280;42018;48.588;10.836;2023-08-17T06:38:03;96856.28;;;21.91;78.37
56142;BME280;42018;48.588;10.836;2023-08-17T06:40:48;96855.53;;;22.03;77.54
56142;BME280;42018;48.588;10.836;2023-08-17T06:43:34;96856.13;;;22.21;76.40
56142;BME280;42018;48.588;10.836;2023-08-17T06:46:19;96857.81;;;22.38;76.15
56142;BME280;42018;48.588;10.836;2023-08-17T06:49:04;96856.53;;;22.47;75.99
56142;BME280;42018;48.588;10.836;2023-08-17T06:51:50;96855.66;;;22.43;76.07
56142;BME280;42018;48.588;10.836;2023-08-17T06:54:35;96852.28;;;22.46;76.88
56142;BME280;42018;48.588;10.836;2023-08-17T06:57:21;96858.56;;;22.63;75.97
56142;BME280;42018;48.588;10.836;2023-08-17T07:00:07;96861.44;;;22.82;74.44
56142;BME280;42018;48.588;10.836;2023-08-17T07:02:52;96855.78;;;22.87;74.58
56142;BME280;42018;48.588;10.836;2023-08-17T07:05:38;96864.94;;;22.95;74.53
56142;BME280;42018;48.588;10.836;2023-08-17T07:08:23;96857.81;;;22.90;75.19
56142;BME280;42018;48.588;10.836;2023-08-17T07:11:08;96864.34;;;23.02;75.27
56142;BME280;42018;48.588;10.836;2023-08-17T07:13:54;96867.25;;;23.09;74.63
56142;BME280;42018;48.588;10.836;2023-08-17T07:16:39;96867.00;;;23.14;74.22
56142;BME280;42018;48.588;10.836;2023-08-17T07:19:25;96874.66;;;23.12;75.12
56142;BME280;42018;48.588;10.836;2023-08-17T07:22:10;96874.47;;;23.33;74.41
56142;BME280;42018;48.588;10.836;2023-08-17T07:24:56;96878.44;;;23.51;73.58
56142;BME280;42018;48.588;10.836;2023-08-17T07:27:41;96888.56;;;23.54;73.49
56142;BME280;42018;48.588;10.836;2023-08-17T07:30:27;96892.50;;;23.57;73.03
56142;BME280;42018;48.588;10.836;2023-08-17T07:33:13;96890.75;;;23.64;72.74
56142;BME280;42018;48.588;10.836;2023-08-17T07:35:58;96887.59;;;23.75;72.97
56142;BME280;42018;48.588;10.836;2023-08-17T07:38:43;96889.16;;;23.76;73.78
56142;BME280;42018;48.588;10.836;2023-08-17T07:41:29;96889.41;;;23.86;74.11
56142;BME280;42018;48.588;10.836;2023-08-17T07:44:14;96883.94;;;23.99;71.99
56142;BME280;42018;48.588;10.836;2023-08-17T07:47:00;96884.03;;;24.18;70.11
56142;BME280;42018;48.588;10.836;2023-08-17T07:49:45;96883.78;;;24.23;70.60
56142;BME280;42018;48.588;10.836;2023-08-17T07:52:31;96886.72;;;24.34;70.56
56142;BME280;42018;48.588;10.836;2023-08-17T07:55:16;96889.28;;;24.43;70.24
56142;BME280;42018;48.588;10.836;2023-08-17T07:58:01;96885.16;;;24.49;70.22
56142;BME280;42018;48.588;10.836;2023-08-17T08:00:47;96887.34;;;24.59;70.46
56142;BME280;42018;48.588;10.836;2023-08-17T08:03:33;96883.34;;;24.72;70.25
56142;BME280;42018;48.588;10.836;2023-08-17T08:06:18;96883.34;;;24.72;68.70
56142;BME280;42018;48.588;10.836;2023-08-17T08:09:05;96882.25;;;24.93;68.80
56142;BME280;42018;48.588;10.836;2023-08-17T08:11:51;96878.69;;;25.08;68.41
56142;BME280;42018;48.588;10.836;2023-08-17T08:14:36;96877.81;;;25.04;67.41
56142;BME280;42018;48.588;10.836;2023-08-17T08:17:22;96871.94;;;25.18;67.94
56142;BME280;42018;48.588;10.836;2023-08-17T08:20:07;96877.50;;;25.25;67.09
56142;BME280;42018;48.588;10.836;2023-08-17T08:22:53;96874.25;;;25.00;68.56
56142;BME280;42018;48.588;10.836;2023-08-17T08:25:38;96872.84;;;25.06;68.98
56142;BME280;42018;48.588;10.836;2023-08-17T08:28:24;96867.31;;;25.38;67.81
56142;BME280;42018;48.588;10.836;2023-08-17T08:31:10;96866.97;;;25.62;66.27
56142;BME280;42018;48.588;10.836;2023-08-17T08:33:55;96863.38;;;25.77;65.80
56142;BME280;42018;48.588;10.836;2023-08-17T08:36:40;96867.78;;;25.86;64.88
56142;BME280;42018;48.588;10.836;2023-08-17T08:39:26;96864.25;;;26.05;64.80
56142;BME280;42018;48.588;10.836;2023-08-17T08:42:12;96862.88;;;26.18;64.42
56142;BME280;42018;48.588;10.836;2023-08-17T08:44:57;96870.25;;;26.40;64.46
56142;BME280;42018;48.588;10.836;2023-08-17T08:47:44;96860.88;;;26.38;63.81
56142;BME280;42018;48.588;10.836;2023-08-17T08:50:31;96861.31;;;26.66;63.43
56142;BME280;42018;48.588;10.836;2023-08-17T08:53:21;96850.53;;;26.73;62.23
56142;BME280;42018;48.588;10.836;2023-08-17T08:56:11;96851.13;;;26.60;61.83
56142;BME280;42018;48.588;10.836;2023-08-17T08:58:59;96848.34;;;26.83;62.40
56142;BME280;42018;48.588;10.836;2023-08-17T09:01:47;96847.38;;;26.98;62.44
56142;BME280;42018;48.588;10.836;2023-08-17T09:04:32;96850.09;;;26.98;61.72
56142;BME280;42018;48.588;10.836;2023-08-17T09:07:18;96849.31;;;26.97;60.58
56142;BME280;42018;48.588;10.836;2023-08-17T09:10:04;96843.97;;;27.38;60.69
56142;BME280;42018;48.588;10.836;2023-08-17T09:12:50;96841.25;;;27.38;60.83
56142;BME280;42018;48.588;10.836;2023-08-17T09:15:35;96841.16;;;27.68;60.15
56142;BME280;42018;48.588;10.836;2023-08-17T09:18:21;96835.72;;;27.68;58.23
56142;BME280;42018;48.588;10.836;2023-08-17T09:21:06;96838.88;;;27.74;58.50
56142;BME280;42018;48.588;10.836;2023-08-17T09:23:52;96835.44;;;27.77;59.67
56142;BME280;42018;48.588;10.836;2023-08-17T09:26:38;96832.53;;;27.63;59.14
56142;BME280;42018;48.588;10.836;2023-08-17T09:29:25;96834.09;;;28.05;57.90
56142;BME280;42018;48.588;10.836;2023-08-17T09:32:11;96833.22;;;28.42;56.58
56142;BME280;42018;48.588;10.836;2023-08-17T09:35:03;96826.41;;;28.76;54.80
56142;BME280;42018;48.588;10.836;2023-08-17T09:37:50;96832.97;;;28.61;55.59
56142;BME280;42018;48.588;10.836;2023-08-17T09:40:35;96832.31;;;28.89;54.59
56142;BME280;42018;48.588;10.836;2023-08-17T09:43:21;96835.97;;;29.18;54.18
56142;BME280;42018;48.588;10.836;2023-08-17T09:46:06;96827.78;;;29.18;53.54
56142;BME280;42018;48.588;10.836;2023-08-17T09:48:53;96831.28;;;29.19;53.82
56142;BME280;42018;48.588;10.836;2023-08-17T09:51:42;96837.56;;;29.30;53.78
56142;BME280;42018;48.588;10.836;2023-08-17T09:54:30;96831.78;;;29.46;52.40
56142;BME280;42018;48.588;10.836;2023-08-17T09:57:17;96824.41;;;29.61;52.74
56142;BME280;42018;48.588;10.836;2023-08-17T10:00:03;96826.75;;;29.80;51.62
56142;BME280;42018;48.588;10.836;2023-08-17T10:02:52;96820.13;;;30.06;51.20
56142;BME280;42018;48.588;10.836;2023-08-17T10:05:40;96831.84;;;29.89;52.92
56142;BME280;42018;48.588;10.836;2023-08-17T10:08:30;96829.47;;;29.58;52.08
56142;BME280;42018;48.588;10.836;2023-08-17T10:11:19;96826.38;;;29.71;51.40
56142;BME280;42018;48.588;10.836;2023-08-17T10:14:09;96822.06;;;29.88;51.88
56142;BME280;42018;48.588;10.836;2023-08-17T10:17:01;96821.69;;;29.96;51.48
56142;BME280;42018;48.588;10.836;2023-08-17T10:19:49;96825.56;;;30.13;49.26
56142;BME280;42018;48.588;10.836;2023-08-17T10:22:47;96817.00;;;30.43;46.65
56142;BME280;42018;48.588;10.836;2023-08-17T10:25:37;96811.44;;;30.68;47.86
56142;BME280;42018;48.588;10.836;2023-08-17T10:28:24;96815.34;;;30.85;45.34
56142;BME280;42018;48.588;10.836;2023-08-17T10:31:10;96812.97;;;30.91;46.66
56142;BME280;42018;48.588;10.836;2023-08-17T10:33:56;96821.50;;;31.04;46.15
56142;BME280;42018;48.588;10.836;2023-08-17T10:36:42;96822.19;;;31.25;43.16
56142;BME280;42018;48.588;10.836;2023-08-17T10:39:29;96816.41;;;31.06;43.89
56142;BME280;42018;48.588;10.836;2023-08-17T10:42:15;96813.59;;;31.23;43.93
56142;BME280;42018;48.588;10.836;2023-08-17T10:45:31;96812.09;;;31.12;43.95
56142;BME280;42018;48.588;10.836;2023-08-17T10:51:04;96816.25;;;31.45;42.95
56142;BME280;42018;48.588;10.836;2023-08-17T10:53:52;96808.59;;;31.78;41.95
56142;BME280;42018;48.588;10.836;2023-08-17T10:56:40;96807.63;;;32.02;41.43
56142;BME280;42018;48.588;10.836;2023-08-17T10:59:25;96806.38;;;32.10;41.59
56142;BME280;42018;48.588;10.836;2023-08-17T11:02:11;96804.50;;;32.00;41.82
56142;BME280;42018;48.588;10.836;2023-08-17T11:04:56;96811.56;;;31.98;42.29
56142;BME280;42018;48.588;10.836;2023-08-17T11:07:44;96802.72;;;32.24;41.71
56142;BME280;42018;48.588;10.836;2023-08-17T11:10:30;96807.75;;;31.84;41.77
56142;BME280;42018;48.588;10.836;2023-08-17T11:13:15;96799.59;;;31.77;41.25
56142;BME280;42018;48.588;10.836;2023-08-17T11:16:02;96800.25;;;31.95;40.11
56142;BME280;42018;48.588;10.836;2023-08-17T11:18:47;96792.88;;;32.30;40.67
56142;BME280;42018;48.588;10.836;2023-08-17T11:21:34;96791.91;;;32.51;39.66
56142;BME280;42018;48.588;10.836;2023-08-17T11:24:19;96790.91;;;32.69;38.08
56142;BME280;42018;48.588;10.836;2023-08-17T11:27:04;96785.78;;;32.74;39.22
56142;BME280;42018;48.588;10.836;2023-08-17T11:29:50;96785.09;;;32.97;38.63
56142;BME280;42018;48.588;10.836;2023-08-17T11:32:35;96788.50;;;32.74;38.45
56142;BME280;42018;48.588;10.836;2023-08-17T11:35:21;96787.38;;;32.30;40.14
56142;BME280;42018;48.588;10.836;2023-08-17T11:38:06;96788.72;;;32.56;38.51
56142;BME280;42018;48.588;10.836;2023-08-17T11:40:53;96785.31;;;32.45;39.67
56142;BME280;42018;48.588;10.836;2023-08-17T11:43:38;96778.25;;;32.44;39.72
56142;BME280;42018;48.588;10.836;2023-08-17T11:46:24;96779.84;;;32.45;38.17
56142;BME280;42018;48.588;10.836;2023-08-17T11:49:10;96769.47;;;32.60;38.89
56142;BME280;42018;48.588;10.836;2023-08-17T11:51:55;96776.47;;;32.99;37.58
56142;BME280;42018;48.588;10.836;2023-08-17T11:54:42;96772.47;;;33.34;38.06
56142;BME280;42018;48.588;10.836;2023-08-17T11:57:27;96766.44;;;33.43;36.35
56142;BME280;42018;48.588;10.836;2023-08-17T12:00:19;96762.09;;;33.45;37.74
56142;BME280;42018;48.588;10.836;2023-08-17T12:03:05;96754.44;;;33.83;37.74
56142;BME280;42018;48.588;10.836;2023-08-17T12:05:50;96755.88;;;33.68;36.94
56142;BME280;42018;48.588;10.836;2023-08-17T12:08:36;96744.91;;;33.41;37.44
56142;BME280;42018;48.588;10.836;2023-08-17T12:11:23;96749.19;;;32.84;38.24
56142;BME280;42018;48.588;10.836;2023-08-17T12:14:10;96742.03;;;32.60;38.93
56142;BME280;42018;48.588;10.836;2023-08-17T12:16:58;96747.88;;;32.96;39.04
56142;BME280;42018;48.588;10.836;2023-08-17T12:19:48;96749.63;;;33.37;36.57
56142;BME280;42018;48.588;10.836;2023-08-17T12:22:33;96738.25;;;33.66;36.62
56142;BME280;42018;48.588;10.836;2023-08-17T12:25:22;96729.44;;;34.21;36.69
56142;BME280;42018;48.588;10.836;2023-08-17T12:28:08;96715.63;;;34.25;35.41
56142;BME280;42018;48.588;10.836;2023-08-17T12:31:00;96725.97;;;33.94;35.41
56142;BME280;42018;48.588;10.836;2023-08-17T12:33:46;96715.22;;;34.26;35.02
56142;BME280;42018;48.588;10.836;2023-08-17T12:36:32;96718.47;;;33.98;34.26
56142;BME280;42018;48.588;10.836;2023-08-17T12:39:17;96716.69;;;33.88;34.83
56142;BME280;42018;48.588;10.836;2023-08-17T12:42:06;96716.34;;;33.62;35.29
56142;BME280;42018;48.588;10.836;2023-08-17T12:44:52;96713.28;;;32.72;36.76
56142;BME280;42018;48.588;10.836;2023-08-17T12:47:37;96709.84;;;31.92;38.49
56142;BME280;42018;48.588;10.836;2023-08-17T12:50:23;96701.78;;;31.74;39.37
56142;BME280;42018;48.588;10.836;2023-08-17T12:53:08;96702.81;;;31.87;39.75
56142;BME280;42018;48.588;10.836;2023-08-17T12:55:53;96710.09;;;31.63;39.43
56142;BME280;42018;48.588;10.836;2023-08-17T12:58:39;96703.63;;;31.84;39.78
56142;BME280;42018;48.588;10.836;2023-08-17T13:01:24;96705.63;;;31.77;39.31
56142;BME280;42018;48.588;10.836;2023-08-17T13:04:10;96711.91;;;31.77;39.17
56142;BME280;42018;48.588;10.836;2023-08-17T13:06:55;96717.72;;;31.83;38.81
56142;BME280;42018;48.588;10.836;2023-08-17T13:09:40;96712.88;;;32.01;38.25
56142;BME280;42018;48.588;10.836;2023-08-17T13:12:26;96708.63;;;31.97;38.36
56142;BME280;42018;48.588;10.836;2023-08-17T13:15:11;96705.00;;;32.07;38.61
56142;BME280;42018;48.588;10.836;2023-08-17T13:17:56;96703.50;;;32.02;38.69
56142;BME280;42018;48.588;10.836;2023-08-17T13:20:42;96700.25;;;32.11;38.83
56142;BME280;42018;48.588;10.836;2023-08-17T13:23:27;96707.31;;;32.08;39.75
56142;BME280;42018;48.588;10.836;2023-08-17T13:26:13;96704.22;;;32.06;39.33
56142;BME280;42018;48.588;10.836;2023-08-17T13:28:58;96705.19;;;31.89;39.63
56142;BME280;42018;48.588;10.836;2023-08-17T13:31:44;96707.53;;;31.83;40.83
56142;BME280;42018;48.588;10.836;2023-08-17T13:34:29;96702.44;;;31.85;41.45
56142;BME280;42018;48.588;10.836;2023-08-17T13:37:14;96701.88;;;32.05;40.98
56142;BME280;42018;48.588;10.836;2023-08-17T13:40:00;96709.34;;;32.01;41.54
56142;BME280;42018;48.588;10.836;2023-08-17T13:42:45;96702.41;;;31.92;42.68
56142;BME280;42018;48.588;10.836;2023-08-17T13:45:30;96692.75;;;31.77;42.56
56142;BME280;42018;48.588;10.836;2023-08-17T13:48:28;96680.25;;;31.72;41.29
56142;BME280;42018;48.588;10.836;2023-08-17T13:51:13;96673.22;;;31.71;41.54
56142;BME280;42018;48.588;10.836;2023-08-17T13:53:58;96672.09;;;31.65;42.14
56142;BME280;42018;48.588;10.836;2023-08-17T13:56:44;96668.91;;;31.74;41.55
56142;BME280;42018;48.588;10.836;2023-08-17T13:59:29;96668.09;;;31.77;40.86
56142;BME280;42018;48.588;10.836;2023-08-17T14:02:15;96661.53;;;31.67;40.08
56142;BME280;42018;48.588;10.836;2023-08-17T14:05:00;96658.16;;;31.49;40.62
56142;BME280;42018;48.588;10.836;2023-08-17T14:07:46;96653.41;;;31.57;40.64
56142;BME280;42018;48.588;10.836;2023-08-17T14:10:32;96642.38;;;31.64;40.87
56142;BME280;42018;48.588;10.836;2023-08-17T14:13:18;96645.09;;;31.67;40.79
56142;BME280;42018;48.588;10.836;2023-08-17T14:16:03;96641.03;;;31.79;39.90
56142;BME280;42018;48.588;10.836;2023-08-17T14:18:49;96634.63;;;32.31;39.14
56142;BME280;42018;48.588;10.836;2023-08-17T14:21:34;96632.97;;;32.37;36.99
56142;BME280;42018;48.588;10.836;2023-08-17T14:24:19;96638.75;;;32.12;39.62
56142;BME280;42018;48.588;10.836;2023-08-17T14:27:05;96639.38;;;31.92;38.41
56142;BME280;42018;48.588;10.836;2023-08-17T14:29:50;96652.34;;;31.85;37.69
56142;BME280;42018;48.588;10.836;2023-08-17T14:32:35;96651.91;;;31.90;38.16
56142;BME280;42018;48.588;10.836;2023-08-17T14:35:21;96646.47;;;31.83;38.74